createdAt,value
2022-12-23T00:09:22.784Z,99614.38
2022-12-23T00:39:26.037Z,99625.05
2022-12-23T01:09:29.832Z,99608.48
2022-12-23T01:39:33.694Z,99584.19
2022-12-23T02:09:36.726Z,99578.57
2022-12-23T02:39:40.236Z,99582.48
2022-12-23T03:09:43.656Z,99570.26
2022-12-23T03:39:46.792Z,99565.26
2022-12-23T04:09:49.762Z,99548.05
2022-12-23T04:39:53.161Z,99525.53
2022-12-23T05:09:56.789Z,99489.89
2022-12-23T05:40:00.142Z,99490.81
2022-12-23T06:10:03.564Z,99468.59
2022-12-23T06:40:06.933Z,99471.78
2022-12-23T07:10:10.804Z,99453.22
2022-12-23T07:40:13.585Z,99433.83
2022-12-23T08:10:17.457Z,99416.70
2022-12-23T08:40:20.314Z,99407.20
2022-12-23T09:10:24.078Z,99401.62
2022-12-23T09:40:27.031Z,99380.55
2022-12-23T10:10:30.314Z,99398.55
2022-12-23T10:40:33.533Z,99416.17
2022-12-23T11:10:38.326Z,99419.78
2022-12-23T11:40:41.293Z,99433.23
2022-12-23T12:10:44.991Z,99468.14
2022-12-23T12:40:47.911Z,99491.39
2022-12-23T13:10:51.211Z,99529.53
2022-12-23T13:40:54.113Z,99531.96
2022-12-23T14:10:57.314Z,99582.56
2022-12-23T14:41:00.802Z,99595.86
2022-12-23T15:11:04.774Z,99608.34
2022-12-23T15:41:07.537Z,99619.70
2022-12-23T16:11:11.415Z,99612.52
2022-12-23T16:41:14.373Z,99612.39
2022-12-23T17:11:18.596Z,99636.60
2022-12-23T17:41:21.409Z,99648.30
2022-12-23T18:11:24.981Z,99628.83
2022-12-23T18:41:27.956Z,99614.82
2022-12-23T19:11:32.119Z,99586.81
2022-12-23T19:41:35.051Z,99591.72
2022-12-23T20:11:38.930Z,99616.55
2022-12-23T20:41:41.907Z,99615.39
2022-12-23T21:11:45.682Z,99610.34
2022-12-23T21:41:48.595Z,99582.00
2022-12-23T22:11:53.346Z,99566.19
2022-12-23T22:41:56.148Z,99557.17
2022-12-23T23:11:59.055Z,99530.73
2022-12-23T23:42:02.331Z,99539.45
